I4GOS-3 Weather Reports


Display with metric or nautical units.
time (UTC)temp
F
wind
direction
speed
MPH
gust
MPH
rain 1hr
in
rain 24hr
in
rain mn
in
humidity
%
barometer
mb
20260504181040 71 122 1.0 0.0 0.00 0.00 0.00 49 1015.6
20260504180540 71 124 0.0 0.0 0.00 0.00 0.00 49 1015.6
20260504180040 71 120 0.0 0.0 0.00 0.00 0.00 51 1015.6
20260504175710 71 119 2.0 0.0 0.00 0.00 0.00 50 1015.5
20260504175637 71 119 2.0 0.0 0.00 0.00 0.00 50 1015.5
20260504175540 71 119 2.0 0.0 0.00 0.00 0.00 50 1015.5
20260504175039 71 114 0.0 0.0 0.00 0.00 0.00 51 1015.5
20260504174539 71 106 0.0 0.0 0.00 0.00 0.00 50 1015.5
20260504174039 71 111 3.0 0.0 0.00 0.00 0.00 50 1015.6
20260504173539 72 100 1.0 0.0 0.00 0.00 0.00 50 1015.6
20260504173038 72 82 0.0 0.0 0.00 0.00 0.00 51 1015.5
20260504172538 72 83 0.0 0.0 0.00 0.00 0.00 51 1015.5
20260504172124 72 84 3.0 0.0 0.00 0.00 0.00 51 1015.5
20260504172038 72 84 3.0 0.0 0.00 0.00 0.00 51 1015.5
20260504171638 72 83 0.0 0.0 0.00 0.00 0.00 52 1015.6
20260504171538 72 83 0.0 0.0 0.00 0.00 0.00 52 1015.6
20260504171037 71 83 2.0 0.0 0.00 0.00 0.00 52 1015.5
20260504170537 71 89 0.0 0.0 0.00 0.00 0.00 52 1015.6
20260504160108 71 85 8.0 0.0 0.00 0.00 0.00 47 1015.8
20260504151022 71 56 12.0 0.0 0.00 0.00 0.00 59 1016.1
20260504150522 71 62 2.0 0.0 0.00 0.00 0.00 60 1016.1
20260504141008 71 66 12.0 0.0 0.00 0.00 0.00 61 1016.4
20260504140508 71 44 10.0 0.0 0.00 0.00 0.00 61 1016.4
20260504140125 71 28 11.0 0.0 0.00 0.00 0.00 61 1016.5
20260504120200 71 26 9.0 0.0 0.00 0.00 0.00 50 1017.6
20260504120149 72 73 2.0 0.0 0.00 0.00 0.00 48 1017.6
20260504110453 71 51 8.0 0.0 0.00 0.00 0.00 41 1017.7
20260504100530 72 301 0.0 0.0 0.00 0.00 0.00 49 1017.9
20260504100440 72 301 0.0 0.0 0.00 0.00 0.00 49 1017.9
20260504081935 71 10 0.0 0.0 0.00 0.00 0.00 54 1018.0
20260504081435 70 4 0.0 0.0 0.00 0.00 0.00 54 1018.0
20260504080934 70 28 0.0 0.0 0.00 0.00 0.00 54 1018.1
20260504080520 71 29 0.0 0.0 0.00 0.00 0.00 54 1018.0
20260504080434 71 29 0.0 0.0 0.00 0.00 0.00 54 1018.0
20260504050423 57 161 0.0 0.0 0.00 0.00 0.00 73 1017.2
20260504045923 56 162 0.0 0.0 0.00 0.00 0.00 74 1017.1
20260504045422 56 162 0.0 0.0 0.00 0.00 0.00 74 1017.1
20260504044922 56 161 0.0 0.0 0.00 0.00 0.00 74 1017.1
20260504044422 55 161 0.0 0.0 0.00 0.00 0.00 74 1017.1
20260504043921 55 120 0.0 0.0 0.00 0.00 0.00 74 1017.0
20260504043421 55 120 0.0 0.0 0.00 0.00 0.00 75 1017.1
20260504042920 55 120 0.0 0.0 0.00 0.00 0.00 75 1017.1
20260504042420 55 120 0.0 0.0 0.00 0.00 0.00 75 1017.1
20260504041920 56 120 0.0 0.0 0.00 0.00 0.00 75 1017.1
20260504041419 56 120 0.0 0.0 0.00 0.00 0.00 75 1017.0
20260504040919 56 120 0.0 0.0 0.00 0.00 0.00 74 1017.0
20260504040419 56 120 0.0 0.0 0.00 0.00 0.00 74 1017.0
20260504035914 56 120 0.0 0.0 0.00 0.00 0.00 74 1017.0
20260504035449 56 120 0.0 0.0 0.00 0.00 0.00 74 1017.0
20260504035407 56 120 0.0 0.0 0.00 0.00 0.00 74 1017.0
20260504034907 56 120 0.0 0.0 0.00 0.00 0.00 74 1016.9
20260504034407 56 120 0.0 0.0 0.00 0.00 0.00 74 1016.9
20260504033907 56 120 0.0 0.0 0.00 0.00 0.00 73 1016.9
20260504033407 57 120 0.0 0.0 0.00 0.00 0.00 73 1016.8
20260504032406 57 120 0.0 0.0 0.00 0.00 0.00 73 1016.8
20260504031906 57 120 0.0 0.0 0.00 0.00 0.00 73 1016.8
20260504031406 57 119 0.0 0.0 0.00 0.00 0.00 73 1016.8
20260504030902 57 120 0.0 0.0 0.00 0.00 0.00 72 1016.8
20260504030402 57 120 0.0 0.0 0.00 0.00 0.00 72 1016.8
20260504025902 58 120 0.0 0.0 0.00 0.00 0.00 72 1016.8
20260504025402 58 120 0.0 0.0 0.00 0.00 0.00 72 1016.8
20260504024902 58 120 0.0 0.0 0.00 0.00 0.00 72 1016.9
20260504024401 58 120 0.0 0.0 0.00 0.00 0.00 71 1017.0
20260504023901 58 120 0.0 0.0 0.00 0.00 0.00 71 1017.1
20260504023401 58 120 0.0 0.0 0.00 0.00 0.00 71 1017.1
20260504022901 58 120 0.0 0.0 0.00 0.00 0.00 71 1017.0
20260504022400 58 120 0.0 0.0 0.00 0.00 0.00 71 1017.1
20260504021900 58 120 0.0 0.0 0.00 0.00 0.00 71 1017.1
20260504021400 58 120 0.0 0.0 0.00 0.00 0.00 72 1017.1
20260504020900 58 145 0.0 0.0 0.00 0.00 0.00 72 1017.1
20260504020359 58 145 0.0 0.0 0.00 0.00 0.00 72 1017.1
20260504015859 59 145 0.0 0.0 0.00 0.00 0.00 72 1017.1
20260504015359 59 152 0.0 0.0 0.00 0.00 0.00 72 1017.1
20260504014859 59 152 0.0 0.0 0.00 0.00 0.00 72 1017.0
20260504014358 59 152 0.0 0.0 0.00 0.00 0.00 71 1017.0
20260504013858 59 152 0.0 0.0 0.00 0.00 0.00 71 1017.0
20260504013358 59 152 0.0 0.0 0.00 0.00 0.00 71 1017.0
20260504012858 59 152 0.0 0.0 0.00 0.00 0.00 71 1017.0
20260504012358 59 152 0.0 0.0 0.00 0.00 0.00 71 1017.0
20260504011857 59 186 0.0 0.0 0.00 0.00 0.00 71 1017.0
20260504011357 59 197 0.0 0.0 0.00 0.00 0.00 71 1017.0
20260504010857 59 197 0.0 0.0 0.00 0.00 0.00 71 1017.0
20260504010357 59 197 0.0 0.0 0.00 0.00 0.00 71 1017.0
20260504005856 60 197 0.0 0.0 0.00 0.00 0.00 71 1017.0
20260504005356 60 197 0.0 0.0 0.00 0.00 0.00 71 1017.0
20260504004356 60 197 0.0 0.0 0.00 0.00 0.00 71 1017.0
20260504003856 60 197 0.0 0.0 0.00 0.00 0.00 71 1017.0
20260504003355 60 197 0.0 0.0 0.00 0.00 0.00 71 1017.1
20260504002855 60 197 0.0 0.0 0.00 0.00 0.00 71 1017.0
20260504002355 60 197 0.0 0.0 0.00 0.00 0.00 70 1017.1
20260504001855 60 197 0.0 0.0 0.00 0.00 0.00 70 1017.1
20260504001354 60 197 0.0 0.0 0.00 0.00 0.00 70 1017.1
20260504000854 60 197 0.0 0.0 0.00 0.00 0.00 70 1017.1
20260504000354 60 197 0.0 0.0 0.00 0.00 0.00 70 1017.1
20260503235854 60 197 0.0 0.0 0.00 0.00 0.00 70 1017.1
20260503235353 60 197 0.0 0.0 0.00 0.00 0.00 70 1017.1
20260503234853 60 197 0.0 0.0 0.00 0.00 0.00 70 1017.0
20260503234353 60 197 0.0 0.0 0.00 0.00 0.00 69 1017.0
20260503233853 61 197 0.0 0.0 0.00 0.00 0.00 69 1017.0
20260503233353 61 197 0.0 0.0 0.00 0.00 0.00 69 1017.0
20260503232852 61 197 0.0 0.0 0.00 0.00 0.00 69 1017.1
20260503232352 61 197 0.0 0.0 0.00 0.00 0.00 69 1017.1
20260503231852 61 197 0.0 0.0 0.00 0.00 0.00 68 1017.1
20260503231352 61 197 0.0 0.0 0.00 0.00 0.00 68 1017.1
20260503230851 61 197 0.0 0.0 0.00 0.00 0.00 68 1017.1
20260503230351 61 197 0.0 0.0 0.00 0.00 0.00 67 1017.0
20260503225851 62 197 0.0 0.0 0.00 0.00 0.00 67 1017.1
20260503225351 62 197 0.0 0.0 0.00 0.00 0.00 67 1017.1
20260503224850 62 197 0.0 0.0 0.00 0.00 0.00 67 1017.1
20260503224350 62 197 0.0 0.0 0.00 0.00 0.00 67 1017.1
20260503223850 62 197 0.0 0.0 0.00 0.00 0.00 67 1017.2
20260503223350 62 197 0.0 0.0 0.00 0.00 0.00 67 1017.2
20260503222846 62 197 0.0 0.0 0.00 0.00 0.00 67 1017.2
20260503222346 62 197 0.0 0.0 0.00 0.00 0.00 67 1017.2
20260503221845 62 197 0.0 0.0 0.00 0.00 0.00 67 1017.2
20260503221345 62 196 0.0 0.0 0.00 0.00 0.00 67 1017.3
20260503220419 62 194 0.0 0.0 0.00 0.00 0.00 68 1017.2
20260503220345 62 194 0.0 0.0 0.00 0.00 0.00 68 1017.2
20260503215845 62 194 0.0 0.0 0.00 0.00 0.00 68 1017.3
20260503215344 62 205 0.0 0.0 0.00 0.00 0.00 68 1017.3
20260503214844 62 205 0.0 0.0 0.00 0.00 0.00 68 1017.3
20260503214344 62 205 0.0 0.0 0.00 0.00 0.00 68 1017.2
20260503213844 62 208 0.0 0.0 0.00 0.00 0.00 68 1017.3
20260503213343 62 205 0.0 0.0 0.00 0.00 0.00 68 1017.2
20260503212843 62 216 0.0 0.0 0.00 0.00 0.00 68 1017.3
20260503212343 62 242 0.0 0.0 0.00 0.00 0.00 68 1017.1
20260503211843 62 239 0.0 0.0 0.00 0.00 0.00 69 1017.1
20260503211342 62 244 0.0 0.0 0.00 0.00 0.00 69 1017.1
20260503210842 62 244 0.0 0.0 0.00 0.00 0.00 69 1017.1
20260503210342 62 246 0.0 0.0 0.00 0.00 0.00 69 1017.0
20260503205842 62 246 0.0 0.0 0.00 0.00 0.00 68 1017.0
20260503205500 63 266 3.0 0.0 0.00 0.00 0.00 67 1017.0
20260503205425 63 266 3.0 0.0 0.00 0.00 0.00 67 1017.0
20260503205341 63 266 3.0 0.0 0.00 0.00 0.00 67 1017.0
20260503204841 63 133 0.0 0.0 0.00 0.00 0.00 67 1016.9
20260503204420 63 133 0.0 0.0 0.00 0.00 0.00 67 1016.9
20260503204340 63 133 0.0 0.0 0.00 0.00 0.00 67 1016.9
20260503203839 63 133 0.0 0.0 0.00 0.00 0.00 67 1016.8
20260503202835 63 72 0.0 0.0 0.00 0.00 0.00 67 1016.8
20260503202330 64 72 0.0 0.0 0.00 0.00 0.00 67 1016.8
20260503201830 64 72 0.0 0.0 0.00 0.00 0.00 67 1016.8
20260503201330 64 72 0.0 0.0 0.00 0.00 0.00 68 1016.9
20260503200829 65 72 0.0 0.0 0.00 0.00 0.00 67 1016.9
20260503200329 65 72 0.0 0.0 0.00 0.00 0.00 67 1016.9
20260503195829 65 72 0.0 0.0 0.00 0.00 0.00 67 1016.8
20260503195329 66 72 0.0 0.0 0.00 0.00 0.00 66 1016.9
20260503194828 66 72 0.0 0.0 0.00 0.00 0.00 66 1016.8
20260503194328 66 72 0.0 0.0 0.00 0.00 0.00 66 1016.8
20260503193822 66 72 0.0 0.0 0.00 0.00 0.00 66 1016.7
20260503193321 66 72 0.0 0.0 0.00 0.00 0.00 65 1016.8
20260503192907 67 72 0.0 0.0 0.00 0.00 0.00 65 1016.8
20260503192821 67 72 0.0 0.0 0.00 0.00 0.00 65 1016.8
20260503192314 67 72 0.0 0.0 0.00 0.00 0.00 65 1016.8
20260503191808 67 72 0.0 0.0 0.00 0.00 0.00 65 1016.8
20260503191308 67 72 0.0 0.0 0.00 0.00 0.00 65 1016.8
20260503190808 68 71 0.0 0.0 0.00 0.00 0.00 66 1016.7
20260503190307 68 72 0.0 0.0 0.00 0.00 0.00 65 1016.7
20260503185807 68 72 0.0 0.0 0.00 0.00 0.00 64 1016.6
20260503185307 68 73 0.0 0.0 0.00 0.00 0.00 64 1016.6
20260503184806 68 72 0.0 0.0 0.00 0.00 0.00 64 1016.7
20260503184305 69 72 0.0 0.0 0.00 0.00 0.00 64 1016.6
20260503183805 69 72 0.0 0.0 0.00 0.00 0.00 64 1016.5
20260503183332 69 72 0.0 0.0 0.00 0.00 0.00 63 1016.5
20260503183255 69 72 0.0 0.0 0.00 0.00 0.00 63 1016.5
20260503182802 69 72 0.0 0.0 0.00 0.00 0.00 63 1016.4
20260503182253 69 72 0.0 0.0 0.00 0.00 0.00 63 1016.5
20260503181753 69 72 0.0 0.0 0.00 0.00 0.00 62 1016.4